createdAt,value
2022-11-17T00:01:39.294Z,98274.56
2022-11-17T00:06:41.230Z,98246.50
2022-11-17T00:12:06.541Z,98231.41
2022-11-17T00:17:10.817Z,98224.56
2022-11-17T00:22:12.574Z,98222.03
2022-11-17T00:27:15.042Z,98209.75
2022-11-17T00:32:36.743Z,98197.75
2022-11-17T00:38:01.230Z,98192.16
2022-11-17T00:43:03.078Z,98192.44
2022-11-17T00:48:05.139Z,98184.19
2022-11-17T00:53:07.328Z,98155.69
2022-11-17T00:58:09.292Z,98176.25
2022-11-17T01:03:10.997Z,98199.69
2022-11-17T01:08:12.900Z,98175.78
2022-11-17T01:13:18.071Z,98181.69
2022-11-17T01:18:22.992Z,98160.28
2022-11-17T01:23:24.921Z,98148.00
2022-11-17T01:28:26.795Z,98135.69
2022-11-17T01:33:28.877Z,98126.34
2022-11-17T01:38:31.519Z,98116.88
2022-11-17T01:43:50.264Z,98119.34
2022-11-17T01:48:55.743Z,98108.19
2022-11-17T01:53:58.409Z,98099.25
2022-11-17T01:59:16.314Z,98095.19
2022-11-17T02:04:18.100Z,98084.84
2022-11-17T02:09:21.413Z,98077.56
2022-11-17T02:14:23.319Z,98071.72
2022-11-17T02:19:28.066Z,98078.28
2022-11-17T02:25:07.155Z,98082.75
2022-11-17T02:30:15.380Z,98069.78
2022-11-17T02:35:27.592Z,98054.81
2022-11-17T02:40:37.793Z,98058.47
2022-11-17T02:45:50.824Z,98051.34
2022-11-17T02:50:55.064Z,98030.50
2022-11-17T02:56:00.168Z,98023.41
2022-11-17T03:01:09.105Z,98011.53
2022-11-17T03:06:29.924Z,98005.06
2022-11-17T03:11:56.368Z,97995.03
2022-11-17T03:17:16.799Z,97989.84
2022-11-17T03:22:25.385Z,97982.03
2022-11-17T03:27:34.459Z,97977.41
2022-11-17T03:32:39.643Z,97972.84
2022-11-17T03:37:49.896Z,97967.53
2022-11-17T03:42:56.087Z,97961.63
2022-11-17T03:48:04.519Z,97959.13
2022-11-17T03:53:06.906Z,97957.31
2022-11-17T03:58:14.817Z,97950.03
2022-11-17T04:03:16.837Z,97936.63
2022-11-17T04:08:19.953Z,97947.25
2022-11-17T04:13:40.366Z,97951.16
2022-11-17T04:18:42.257Z,97936.19
2022-11-17T04:23:44.180Z,97925.47
2022-11-17T04:28:49.486Z,97918.38
2022-11-17T04:34:02.308Z,97893.91
2022-11-17T04:39:04.459Z,97902.84
2022-11-17T04:44:08.145Z,97915.28
2022-11-17T04:49:10.025Z,97911.50
2022-11-17T04:54:13.453Z,97923.78
2022-11-17T04:59:15.378Z,97942.78
2022-11-17T05:04:39.029Z,97936.31
2022-11-17T05:09:40.960Z,97940.53
2022-11-17T05:14:42.967Z,97955.34
2022-11-17T05:19:46.944Z,97953.81
2022-11-17T05:24:48.935Z,97956.09
2022-11-17T05:29:50.872Z,97965.56
2022-11-17T05:34:52.895Z,97962.47
2022-11-17T05:39:55.080Z,97968.34
2022-11-17T05:44:57.050Z,97970.88
2022-11-17T05:49:59.221Z,97965.69
2022-11-17T05:55:01.363Z,97975.75
2022-11-17T06:00:04.977Z,97971.84
2022-11-17T06:05:07.812Z,97980.09
2022-11-17T06:10:10.330Z,97988.47
2022-11-17T06:15:12.355Z,97997.25
2022-11-17T06:20:22.173Z,98018.78
2022-11-17T06:25:24.581Z,98017.09
2022-11-17T06:30:27.455Z,98003.00
2022-11-17T06:35:33.711Z,98025.50
2022-11-17T06:40:35.635Z,98032.44
2022-11-17T06:45:45.850Z,98029.53
2022-11-17T06:50:48.472Z,98045.47
2022-11-17T06:55:54.171Z,98054.81
2022-11-17T07:01:02.241Z,98062.91
2022-11-17T07:06:06.035Z,98076.19
2022-11-17T07:11:13.928Z,98071.72
2022-11-17T07:16:23.265Z,98083.88
2022-11-17T07:21:25.754Z,98093.91
2022-11-17T07:26:27.834Z,98096.47
2022-11-17T07:31:29.713Z,98109.84
2022-11-17T07:36:31.673Z,98115.72
2022-11-17T07:41:33.476Z,98116.81
2022-11-17T07:46:35.614Z,98115.00
2022-11-17T07:51:37.887Z,98120.72
2022-11-17T07:56:39.818Z,98137.94
2022-11-17T08:01:42.454Z,98136.41
2022-11-17T08:06:44.448Z,98136.22
2022-11-17T08:11:46.452Z,98149.78
2022-11-17T08:16:48.493Z,98146.88
2022-11-17T08:21:51.329Z,98150.50
2022-11-17T08:26:53.860Z,98146.16
2022-11-17T08:31:55.915Z,98155.25
2022-11-17T08:36:57.990Z,98150.66
2022-11-17T08:42:00.007Z,98153.97
2022-11-17T08:47:01.923Z,98164.75
2022-11-17T08:52:04.068Z,98169.63
2022-11-17T08:57:06.269Z,98184.75
2022-11-17T09:02:08.405Z,98182.78
2022-11-17T09:07:10.795Z,98188.91
2022-11-17T09:12:13.024Z,98187.41
2022-11-17T09:17:14.956Z,98193.69
2022-11-17T09:22:17.200Z,98209.44
2022-11-17T09:27:18.952Z,98206.41
2022-11-17T09:32:21.013Z,98231.84
2022-11-17T09:37:23.073Z,98223.75
2022-11-17T09:42:25.169Z,98234.91
2022-11-17T09:47:37.666Z,98246.94
2022-11-17T09:53:17.045Z,98261.88
2022-11-17T09:58:40.174Z,98256.28
2022-11-17T10:03:48.127Z,98246.94
2022-11-17T10:09:25.662Z,98253.94
2022-11-17T10:14:29.281Z,98271.81
2022-11-17T10:19:33.466Z,98280.03
2022-11-17T10:24:36.777Z,98284.78
2022-11-17T10:29:38.706Z,98291.66
2022-11-17T10:34:41.693Z,98304.75
2022-11-17T10:39:43.998Z,98302.97
2022-11-17T10:44:51.705Z,98298.38
2022-11-17T10:50:20.703Z,98310.63
2022-11-17T10:55:25.913Z,98324.63
2022-11-17T11:00:31.315Z,98317.78
2022-11-17T11:05:33.170Z,98311.19
2022-11-17T11:10:35.660Z,98320.13
2022-11-17T11:15:37.894Z,98322.38
2022-11-17T11:20:50.209Z,98336.16
2022-11-17T11:25:57.337Z,98345.34
2022-11-17T11:31:02.216Z,98346.06
2022-11-17T11:36:16.194Z,98335.38
2022-11-17T11:41:24.240Z,98341.91
2022-11-17T11:47:04.705Z,98347.63
2022-11-17T11:52:12.072Z,98347.09
2022-11-17T11:57:17.031Z,98369.47
2022-11-17T12:02:39.153Z,98366.56
2022-11-17T12:07:47.994Z,98365.53
2022-11-17T12:12:50.606Z,98372.06
2022-11-17T12:17:52.776Z,98373.22
2022-11-17T12:23:25.594Z,98366.94
2022-11-17T12:28:27.730Z,98366.69
2022-11-17T12:33:54.447Z,98367.22
2022-11-17T12:38:57.420Z,98365.69
2022-11-17T12:44:37.813Z,98364.56
2022-11-17T12:49:58.335Z,98367.22
2022-11-17T12:55:18.303Z,98372.25
2022-11-17T13:00:23.706Z,98365.97
2022-11-17T13:05:28.829Z,98375.00
2022-11-17T13:10:32.006Z,98385.09
2022-11-17T13:15:34.248Z,98387.88
2022-11-17T13:20:39.528Z,98393.75
2022-11-17T13:25:41.814Z,98386.50
2022-11-17T13:30:46.948Z,98395.97
2022-11-17T13:35:49.218Z,98392.59
2022-11-17T13:40:53.798Z,98392.59
2022-11-17T13:45:56.071Z,98396.94
2022-11-17T13:51:20.769Z,98408.91
2022-11-17T13:56:36.989Z,98400.31
2022-11-17T14:01:39.021Z,98411.88
2022-11-17T14:07:01.351Z,98410.94
2022-11-17T14:12:10.865Z,98414.00
2022-11-17T14:17:19.303Z,98428.81
2022-11-17T14:22:31.061Z,98425.63
2022-11-17T14:27:33.262Z,98433.91
2022-11-17T14:32:35.078Z,98432.88
2022-11-17T14:37:37.004Z,98447.75
2022-11-17T14:42:41.833Z,98445.88
2022-11-17T14:47:44.197Z,98449.03
2022-11-17T14:52:46.219Z,98451.69
2022-11-17T14:57:49.052Z,98455.84
2022-11-17T15:02:51.497Z,98465.69
2022-11-17T15:07:55.669Z,98459.66
2022-11-17T15:12:57.942Z,98474.50
2022-11-17T15:18:00.323Z,98465.97
2022-11-17T15:23:03.563Z,98476.63
2022-11-17T15:28:05.673Z,98479.25
2022-11-17T15:33:07.304Z,98486.34
2022-11-17T15:38:09.617Z,98494.03
2022-11-17T15:43:11.892Z,98489.06
2022-11-17T15:48:18.603Z,98504.97
2022-11-17T15:53:20.917Z,98512.00
2022-11-17T15:58:22.763Z,98509.56
2022-11-17T16:03:24.862Z,98513.97
2022-11-17T16:08:26.783Z,98525.19
2022-11-17T16:13:29.697Z,98528.44
2022-11-17T16:18:34.264Z,98531.84
2022-11-17T16:23:49.812Z,98532.53
2022-11-17T16:29:05.332Z,98533.78
2022-11-17T16:34:12.269Z,98542.34
2022-11-17T16:39:17.284Z,98541.22
2022-11-17T16:44:19.429Z,98546.72
2022-11-17T16:49:21.901Z,98548.38
2022-11-17T16:54:23.941Z,98553.09
2022-11-17T16:59:25.746Z,98553.38
2022-11-17T17:04:33.286Z,98562.47
2022-11-17T17:09:35.276Z,98555.13
2022-11-17T17:14:37.334Z,98566.44
2022-11-17T17:19:39.156Z,98567.44
2022-11-17T17:24:41.167Z,98572.75
2022-11-17T17:29:43.195Z,98578.06
2022-11-17T17:34:44.980Z,98570.53
2022-11-17T17:39:46.874Z,98578.28
2022-11-17T17:44:48.732Z,98574.81
2022-11-17T17:49:50.591Z,98590.84
2022-11-17T17:54:52.412Z,98595.25
2022-11-17T17:59:54.299Z,98598.44
2022-11-17T18:04:56.174Z,98607.31
2022-11-17T18:09:58.003Z,98617.53
2022-11-17T18:15:00.056Z,98609.53
2022-11-17T18:20:01.914Z,98617.63
2022-11-17T18:25:07.840Z,98618.22
2022-11-17T18:30:10.121Z,98613.28
2022-11-17T18:35:12.110Z,98629.47
2022-11-17T18:40:13.979Z,98640.69
2022-11-17T18:45:16.022Z,98650.25
2022-11-17T18:50:18.183Z,98651.34
2022-11-17T18:55:20.245Z,98659.69
2022-11-17T19:00:22.306Z,98673.56
2022-11-17T19:05:24.400Z,98682.84
2022-11-17T19:10:26.296Z,98682.47
2022-11-17T19:15:28.243Z,98688.72
2022-11-17T19:20:30.178Z,98688.34
2022-11-17T19:25:32.313Z,98687.06
2022-11-17T19:30:34.685Z,98696.56
2022-11-17T19:35:42.687Z,98693.59
2022-11-17T19:40:44.616Z,98707.31
2022-11-17T19:45:46.598Z,98707.91
2022-11-17T19:50:53.003Z,98725.34
2022-11-17T19:56:00.028Z,98725.19
2022-11-17T20:01:09.319Z,98722.88
2022-11-17T20:06:13.018Z,98725.91
2022-11-17T20:11:20.791Z,98731.34
2022-11-17T20:16:25.745Z,98732.56
2022-11-17T20:21:29.115Z,98740.16
2022-11-17T20:26:33.235Z,98742.94
2022-11-17T20:31:36.443Z,98746.56
2022-11-17T20:36:38.336Z,98753.81
2022-11-17T20:41:40.348Z,98763.56
2022-11-17T20:46:42.305Z,98770.47
2022-11-17T20:51:44.313Z,98769.97
2022-11-17T20:56:46.134Z,98787.97
2022-11-17T21:01:50.095Z,98790.63
2022-11-17T21:06:52.653Z,98799.44
2022-11-17T21:11:57.794Z,98794.44
2022-11-17T21:17:00.919Z,98798.94
2022-11-17T21:22:03.215Z,98797.03
2022-11-17T21:27:05.533Z,98806.94
2022-11-17T21:32:07.587Z,98813.69
2022-11-17T21:37:09.821Z,98817.94
2022-11-17T21:42:11.606Z,98818.41
2022-11-17T21:47:13.630Z,98826.13
2022-11-17T21:52:15.626Z,98829.47
2022-11-17T21:57:17.584Z,98838.53
2022-11-17T22:02:19.436Z,98840.81
2022-11-17T22:07:21.510Z,98845.53
2022-11-17T22:12:23.501Z,98849.16
2022-11-17T22:17:25.657Z,98850.13
2022-11-17T22:22:27.722Z,98858.09
2022-11-17T22:27:29.952Z,98858.69
2022-11-17T22:32:32.068Z,98864.97
2022-11-17T22:37:34.049Z,98867.84
2022-11-17T22:42:36.127Z,98878.25
2022-11-17T22:47:38.252Z,98879.69
2022-11-17T22:52:40.191Z,98882.13
2022-11-17T22:57:42.093Z,98887.53
2022-11-17T23:02:44.012Z,98883.69
2022-11-17T23:07:45.993Z,98884.88
2022-11-17T23:12:47.826Z,98887.44
2022-11-17T23:17:49.624Z,98889.72
2022-11-17T23:22:55.173Z,98886.59
2022-11-17T23:27:57.043Z,98898.06
2022-11-17T23:32:58.960Z,98906.97
2022-11-17T23:38:00.835Z,98913.16
2022-11-17T23:43:02.551Z,98921.84
2022-11-17T23:48:04.446Z,98932.47
2022-11-17T23:53:06.144Z,98934.97
2022-11-17T23:58:08.009Z,98943.31
